createdAt,value
2019-03-31T00:01:23.855Z,18.17
2019-03-31T00:04:12.447Z,18.35
2019-03-31T00:07:01.857Z,18.00
2019-03-31T00:09:51.021Z,17.67
2019-03-31T00:12:40.176Z,18.35
2019-03-31T00:15:29.202Z,17.23
2019-03-31T00:18:18.947Z,19.73
2019-03-31T00:21:08.799Z,17.20
2019-03-31T00:23:57.563Z,17.77
2019-03-31T00:26:46.790Z,19.23
2019-03-31T00:29:36.333Z,16.70
2019-03-31T00:32:25.258Z,17.45
2019-03-31T00:35:14.492Z,16.82
2019-03-31T00:38:04.112Z,16.07
2019-03-31T00:40:53.039Z,19.05
2019-03-31T00:43:42.543Z,18.50
2019-03-31T00:46:32.089Z,16.95
2019-03-31T00:49:20.887Z,17.65
2019-03-31T00:52:10.167Z,16.80
2019-03-31T00:54:59.032Z,17.90
2019-03-31T00:57:47.750Z,17.60
2019-03-31T01:00:55.311Z,16.70
2019-03-31T01:03:43.987Z,17.57
2019-03-31T01:06:32.731Z,17.65
2019-03-31T01:09:25.358Z,15.03
2019-03-31T01:12:14.695Z,17.25
2019-03-31T01:15:06.236Z,16.07
2019-03-31T01:17:55.171Z,16.82
2019-03-31T01:20:45.431Z,15.20
2019-03-31T01:23:34.527Z,16.70
2019-03-31T01:26:23.971Z,16.05
2019-03-31T01:29:15.739Z,15.85
2019-03-31T01:32:05.278Z,15.95
2019-03-31T01:34:54.624Z,16.10
2019-03-31T01:37:44.385Z,15.53
2019-03-31T01:40:33.727Z,15.83
2019-03-31T01:43:23.123Z,14.90
2019-03-31T01:46:15.114Z,17.67
2019-03-31T01:49:04.225Z,17.42
2019-03-31T01:51:53.264Z,18.40
2019-03-31T01:54:42.135Z,15.70
2019-03-31T01:57:31.613Z,16.20
2019-03-31T02:00:45.598Z,16.70
2019-03-31T02:03:35.269Z,14.98
2019-03-31T02:06:24.552Z,15.08
2019-03-31T02:09:13.752Z,14.58
2019-03-31T02:12:03.045Z,16.20
2019-03-31T02:14:52.031Z,14.80
2019-03-31T02:17:41.616Z,15.58
2019-03-31T02:20:30.778Z,15.35
2019-03-31T02:23:19.463Z,16.27
2019-03-31T02:26:08.920Z,14.73
2019-03-31T02:28:58.725Z,14.23
2019-03-31T02:31:48.057Z,14.50
2019-03-31T02:34:37.178Z,14.43
2019-03-31T02:37:25.794Z,15.80
2019-03-31T02:40:15.016Z,14.33
2019-03-31T02:43:04.149Z,16.10
2019-03-31T02:45:53.553Z,14.70
2019-03-31T02:48:43.101Z,14.50
2019-03-31T02:51:32.492Z,14.75
2019-03-31T02:54:21.178Z,14.05
2019-03-31T02:57:11.095Z,14.40
2019-03-31T03:00:02.478Z,14.87
2019-03-31T03:02:53.613Z,13.58
2019-03-31T03:05:44.776Z,14.03
2019-03-31T03:08:36.668Z,14.57
2019-03-31T03:11:27.650Z,15.25
2019-03-31T03:14:16.511Z,13.80
2019-03-31T03:17:05.793Z,14.43
2019-03-31T03:19:54.412Z,14.00
2019-03-31T03:22:43.114Z,14.43
2019-03-31T03:25:32.238Z,15.40
2019-03-31T03:28:21.621Z,14.93
2019-03-31T03:31:15.741Z,14.00
2019-03-31T03:34:02.009Z,14.25
2019-03-31T03:36:50.988Z,13.98
2019-03-31T03:39:40.597Z,13.93
2019-03-31T03:42:30.031Z,13.58
2019-03-31T03:45:19.233Z,13.53
2019-03-31T03:48:08.734Z,14.80
2019-03-31T03:50:57.741Z,13.57
2019-03-31T03:53:47.276Z,13.97
2019-03-31T03:56:36.176Z,13.10
2019-03-31T03:59:25.648Z,13.48
2019-03-31T04:02:14.836Z,14.13
2019-03-31T04:05:03.641Z,14.05
2019-03-31T04:07:52.741Z,15.23
2019-03-31T04:11:26.321Z,14.00
2019-03-31T04:14:15.138Z,12.28
2019-03-31T04:17:04.017Z,13.10
2019-03-31T04:19:52.904Z,14.40
2019-03-31T04:22:42.108Z,12.75
2019-03-31T04:25:31.479Z,12.50
2019-03-31T04:28:20.875Z,14.30
2019-03-31T04:31:10.131Z,12.20
2019-03-31T04:34:00.178Z,12.33
2019-03-31T04:36:48.987Z,13.15
2019-03-31T04:39:38.138Z,13.97
2019-03-31T04:42:27.432Z,12.90
2019-03-31T04:45:17.090Z,14.45
2019-03-31T04:48:06.232Z,12.88
2019-03-31T04:50:55.342Z,14.50
2019-03-31T04:53:44.140Z,12.60
2019-03-31T04:56:33.541Z,12.88
2019-03-31T04:59:23.066Z,13.25
2019-03-31T05:02:12.673Z,13.00
2019-03-31T05:05:02.391Z,12.60
2019-03-31T05:07:51.346Z,12.17
2019-03-31T05:10:40.553Z,11.70
2019-03-31T05:13:30.004Z,13.80
2019-03-31T05:16:19.232Z,13.45
2019-03-31T05:19:08.923Z,12.43
2019-03-31T05:21:58.232Z,11.93
2019-03-31T05:24:47.746Z,13.43
2019-03-31T05:27:36.912Z,12.37
2019-03-31T05:30:26.539Z,11.97
2019-03-31T05:33:15.230Z,11.53
2019-03-31T05:36:04.130Z,14.18
2019-03-31T05:38:53.325Z,13.93
2019-03-31T05:41:42.738Z,13.53
2019-03-31T05:44:31.609Z,12.20
2019-03-31T05:47:20.837Z,13.00
2019-03-31T05:50:09.642Z,13.40
2019-03-31T05:52:59.364Z,12.20
2019-03-31T05:55:48.264Z,11.65
2019-03-31T05:58:37.344Z,10.60
2019-03-31T06:01:26.114Z,12.73
2019-03-31T06:04:14.645Z,12.28
2019-03-31T06:07:03.840Z,11.70
2019-03-31T06:09:53.131Z,14.38
2019-03-31T06:12:42.264Z,13.43
2019-03-31T06:15:31.320Z,13.00
2019-03-31T06:18:20.523Z,13.70
2019-03-31T06:21:09.694Z,12.05
2019-03-31T06:23:59.528Z,11.87
2019-03-31T06:26:49.327Z,11.70
2019-03-31T06:29:38.476Z,12.53
2019-03-31T06:32:30.551Z,13.40
2019-03-31T06:35:19.860Z,12.15
2019-03-31T06:38:08.896Z,17.35
2019-03-31T06:40:58.904Z,11.03
2019-03-31T06:43:48.708Z,12.47
2019-03-31T06:46:37.780Z,12.55
2019-03-31T06:49:27.285Z,10.15
2019-03-31T06:52:17.101Z,17.73
2019-03-31T06:55:08.077Z,11.65
2019-03-31T06:57:56.808Z,10.65
2019-03-31T07:00:45.925Z,14.07
2019-03-31T07:03:35.274Z,15.08
2019-03-31T07:06:24.480Z,10.78
2019-03-31T07:09:13.898Z,10.48
2019-03-31T07:12:02.731Z,10.00
2019-03-31T07:14:52.036Z,12.07
2019-03-31T07:17:41.179Z,12.80
2019-03-31T07:20:29.895Z,11.68
2019-03-31T07:23:19.420Z,12.50
2019-03-31T07:26:08.639Z,11.35
2019-03-31T07:28:58.202Z,12.58
2019-03-31T07:31:46.796Z,14.05
2019-03-31T07:34:35.505Z,12.13
2019-03-31T07:37:24.487Z,11.83
2019-03-31T07:40:14.732Z,10.82
2019-03-31T07:43:04.039Z,13.22
2019-03-31T07:45:55.824Z,9.30
2019-03-31T07:48:43.382Z,11.88
2019-03-31T07:51:32.793Z,11.53
2019-03-31T07:54:22.134Z,11.90
2019-03-31T07:57:10.876Z,13.80
2019-03-31T08:00:00.481Z,11.05
2019-03-31T08:02:50.019Z,13.95
2019-03-31T08:05:38.929Z,10.43
2019-03-31T08:08:28.326Z,9.37
2019-03-31T08:11:17.455Z,13.90
2019-03-31T08:14:06.740Z,12.67
2019-03-31T08:16:56.164Z,12.73
2019-03-31T08:19:45.837Z,11.20
2019-03-31T08:22:35.233Z,12.33
2019-03-31T08:25:24.324Z,13.20
2019-03-31T08:28:13.185Z,14.10
2019-03-31T08:31:02.227Z,11.20
2019-03-31T08:33:51.585Z,13.97
2019-03-31T08:36:40.651Z,12.77
2019-03-31T08:39:30.580Z,14.80
2019-03-31T08:42:20.059Z,13.30
2019-03-31T08:45:09.317Z,15.50
2019-03-31T08:47:58.519Z,15.50
2019-03-31T08:50:48.085Z,16.07
2019-03-31T08:53:37.824Z,14.27
2019-03-31T08:56:27.802Z,17.50
2019-03-31T08:59:16.877Z,17.87
2019-03-31T09:02:26.401Z,16.43
2019-03-31T09:05:15.796Z,17.70
2019-03-31T09:08:05.058Z,18.93
2019-03-31T09:10:54.269Z,17.60
2019-03-31T09:13:43.800Z,25.13
2019-03-31T09:16:33.125Z,18.40
2019-03-31T09:19:22.859Z,21.90
2019-03-31T09:22:11.554Z,20.27
2019-03-31T09:25:00.397Z,23.63
2019-03-31T09:27:49.566Z,21.30
2019-03-31T09:30:38.715Z,21.27
2019-03-31T09:33:29.903Z,22.00
2019-03-31T09:36:19.343Z,23.53
2019-03-31T09:39:08.681Z,23.73
2019-03-31T09:41:57.409Z,21.10
2019-03-31T09:44:46.896Z,21.33
2019-03-31T09:47:39.928Z,17.77
2019-03-31T09:50:28.991Z,17.83
2019-03-31T09:53:18.032Z,19.87
2019-03-31T09:56:07.653Z,20.00
2019-03-31T09:58:57.374Z,19.37
2019-03-31T10:01:46.797Z,21.47
2019-03-31T10:04:36.557Z,18.70
2019-03-31T10:07:26.066Z,24.50
2019-03-31T10:10:31.372Z,15.90
2019-03-31T10:13:20.399Z,17.70
2019-03-31T10:16:10.089Z,17.63
2019-03-31T10:18:59.554Z,18.30
2019-03-31T10:21:48.924Z,18.10
2019-03-31T10:24:38.058Z,18.80
2019-03-31T10:27:27.327Z,17.17
2019-03-31T10:30:19.903Z,18.63
2019-03-31T10:33:08.967Z,12.70
2019-03-31T10:35:57.536Z,15.20
2019-03-31T10:38:46.590Z,14.43
2019-03-31T10:41:35.868Z,11.83
2019-03-31T10:44:24.873Z,11.87
2019-03-31T10:47:13.995Z,14.10
2019-03-31T10:50:03.708Z,17.03
2019-03-31T10:52:52.957Z,14.60
2019-03-31T10:55:41.949Z,13.83
2019-03-31T10:58:33.241Z,14.17
2019-03-31T11:01:22.027Z,14.47
2019-03-31T11:04:11.558Z,13.13
2019-03-31T11:07:03.455Z,13.50
2019-03-31T11:09:51.491Z,11.53
2019-03-31T11:12:40.968Z,14.03
2019-03-31T11:15:30.484Z,14.20
2019-03-31T11:18:19.737Z,12.30
2019-03-31T11:21:15.290Z,14.33
2019-03-31T11:24:04.734Z,12.23
2019-03-31T11:26:53.629Z,11.53
2019-03-31T11:29:42.942Z,10.77
2019-03-31T11:32:32.328Z,7.27
2019-03-31T11:35:21.313Z,10.40
2019-03-31T11:38:10.559Z,9.03
2019-03-31T11:40:59.972Z,10.10
2019-03-31T11:43:49.127Z,10.20
2019-03-31T11:46:39.920Z,11.67
2019-03-31T11:49:28.658Z,10.20
2019-03-31T11:52:17.965Z,9.60
2019-03-31T11:55:09.033Z,11.90
2019-03-31T11:57:58.807Z,10.27
2019-03-31T12:00:54.218Z,12.30
2019-03-31T12:03:43.484Z,11.73
2019-03-31T12:06:32.206Z,10.00
2019-03-31T12:09:21.660Z,8.80
2019-03-31T12:12:11.089Z,10.10
2019-03-31T12:15:00.987Z,10.63
2019-03-31T12:17:50.958Z,11.87
2019-03-31T12:20:40.367Z,9.60
2019-03-31T12:23:29.472Z,8.70
2019-03-31T12:26:18.583Z,9.30
2019-03-31T12:29:07.751Z,10.50
2019-03-31T12:31:56.493Z,8.93
2019-03-31T12:34:45.417Z,9.30
2019-03-31T12:37:42.179Z,9.67
2019-03-31T12:40:33.766Z,8.50
2019-03-31T12:43:23.500Z,8.30
2019-03-31T12:46:12.525Z,9.97
2019-03-31T12:49:01.853Z,8.80
2019-03-31T12:51:50.940Z,7.00
2019-03-31T12:54:39.499Z,9.30
2019-03-31T12:57:28.340Z,6.50
2019-03-31T13:00:18.419Z,7.37
2019-03-31T13:03:08.012Z,8.97
2019-03-31T13:05:57.186Z,8.80
2019-03-31T13:08:46.709Z,8.10
2019-03-31T13:11:35.917Z,9.77
2019-03-31T13:14:24.834Z,8.40
2019-03-31T13:17:13.650Z,8.50
2019-03-31T13:20:03.068Z,8.60
2019-03-31T13:22:52.449Z,8.93
2019-03-31T13:25:41.829Z,9.90
2019-03-31T13:28:31.042Z,7.47
2019-03-31T13:31:20.498Z,8.17
2019-03-31T13:34:09.705Z,10.67
2019-03-31T13:36:58.793Z,12.23
2019-03-31T13:39:47.656Z,8.90
2019-03-31T13:42:37.501Z,8.90
2019-03-31T13:45:26.826Z,9.30
2019-03-31T13:48:16.479Z,8.77
2019-03-31T13:51:05.252Z,8.60
2019-03-31T13:53:54.996Z,9.33
2019-03-31T13:56:48.468Z,8.57
2019-03-31T13:59:35.439Z,8.57
2019-03-31T14:02:25.016Z,9.77
2019-03-31T14:05:14.593Z,8.23
2019-03-31T14:08:03.691Z,9.90
2019-03-31T14:10:53.149Z,10.50
2019-03-31T14:13:42.942Z,9.63
2019-03-31T14:16:32.923Z,10.17
2019-03-31T14:19:21.963Z,9.70
2019-03-31T14:22:10.857Z,9.90
2019-03-31T14:25:00.487Z,10.97
2019-03-31T14:27:49.348Z,11.13
2019-03-31T14:30:38.485Z,11.17
2019-03-31T14:33:31.256Z,11.80
2019-03-31T14:36:20.411Z,10.70
2019-03-31T14:39:10.334Z,11.67
2019-03-31T14:42:00.922Z,10.30
2019-03-31T14:44:50.235Z,11.60
2019-03-31T14:47:39.184Z,12.60
2019-03-31T14:50:33.803Z,10.90
2019-03-31T14:53:22.560Z,12.47
2019-03-31T14:56:12.460Z,10.87
2019-03-31T14:59:01.714Z,11.67
2019-03-31T15:01:51.961Z,11.10
2019-03-31T15:04:41.688Z,12.85
2019-03-31T15:07:30.899Z,12.70
2019-03-31T15:10:20.318Z,13.30
2019-03-31T15:13:09.612Z,12.90
2019-03-31T15:15:58.935Z,13.90
2019-03-31T15:18:48.114Z,15.13
2019-03-31T15:21:43.928Z,14.15
2019-03-31T15:24:31.383Z,13.13
2019-03-31T15:27:20.676Z,13.40
2019-03-31T15:30:10.062Z,13.20
2019-03-31T15:32:59.021Z,13.40
2019-03-31T15:35:48.282Z,13.68
2019-03-31T15:38:37.222Z,14.13
2019-03-31T15:41:26.607Z,13.20
2019-03-31T15:44:15.895Z,14.58
2019-03-31T15:47:04.859Z,14.38
2019-03-31T15:49:54.572Z,13.07
2019-03-31T15:52:43.474Z,13.00
2019-03-31T15:55:32.850Z,13.55
2019-03-31T15:58:22.373Z,13.15
2019-03-31T16:01:11.851Z,12.43
2019-03-31T16:04:00.825Z,13.80
2019-03-31T16:06:54.107Z,13.88
2019-03-31T16:09:43.370Z,14.28
2019-03-31T16:12:31.694Z,13.88
2019-03-31T16:15:20.544Z,13.70
2019-03-31T16:18:11.535Z,14.10
2019-03-31T16:20:59.969Z,17.25
2019-03-31T16:23:48.443Z,17.53
2019-03-31T16:26:37.153Z,17.17
2019-03-31T16:29:26.033Z,17.50
2019-03-31T16:32:14.245Z,14.50
2019-03-31T16:35:03.515Z,14.85
2019-03-31T16:37:51.711Z,13.93
2019-03-31T16:40:40.584Z,14.58
2019-03-31T16:43:30.104Z,13.60
2019-03-31T16:46:18.588Z,13.55
2019-03-31T16:49:07.419Z,14.23
2019-03-31T16:51:56.683Z,13.65
2019-03-31T16:54:45.693Z,14.45
2019-03-31T16:57:34.810Z,13.53
2019-03-31T17:00:23.372Z,13.35
2019-03-31T17:03:12.765Z,14.13
2019-03-31T17:06:01.989Z,13.22
2019-03-31T17:08:50.983Z,13.67
2019-03-31T17:11:40.252Z,14.63
2019-03-31T17:14:28.924Z,14.83
2019-03-31T17:17:17.429Z,14.50
2019-03-31T17:20:07.154Z,14.87
2019-03-31T17:22:55.972Z,15.00
2019-03-31T17:25:44.571Z,13.83
2019-03-31T17:28:33.323Z,14.33
2019-03-31T17:31:22.317Z,14.37
2019-03-31T17:34:10.899Z,13.60
2019-03-31T17:36:59.568Z,13.25
2019-03-31T17:40:05.123Z,14.38
2019-03-31T17:42:45.047Z,13.72
2019-03-31T17:45:37.573Z,13.75
2019-03-31T17:48:26.285Z,13.13
2019-03-31T17:51:15.251Z,15.68
2019-03-31T17:54:06.380Z,13.80
2019-03-31T17:56:54.670Z,13.90
2019-03-31T17:59:43.640Z,14.70
2019-03-31T18:02:32.998Z,13.63
2019-03-31T18:05:21.620Z,14.70
2019-03-31T18:08:10.361Z,13.68
2019-03-31T18:10:59.288Z,13.45
2019-03-31T18:13:48.428Z,13.15
2019-03-31T18:18:34.427Z,13.60
2019-03-31T18:21:27.076Z,13.15
2019-03-31T18:24:14.565Z,14.10
2019-03-31T18:27:03.375Z,14.20
2019-03-31T18:29:52.147Z,14.23
2019-03-31T18:32:41.406Z,14.13
2019-03-31T18:35:31.831Z,15.40
2019-03-31T18:38:20.621Z,14.47
2019-03-31T18:41:09.618Z,14.55
2019-03-31T18:43:58.102Z,16.10
2019-03-31T18:46:46.805Z,14.97
2019-03-31T18:49:36.387Z,16.40
2019-03-31T18:52:24.678Z,17.20
2019-03-31T18:55:22.404Z,19.83
2019-03-31T18:58:18.253Z,18.60
2019-03-31T19:01:30.449Z,20.27
2019-03-31T19:04:39.721Z,20.17
2019-03-31T19:08:00.072Z,19.12
2019-03-31T19:11:10.749Z,17.67
2019-03-31T19:14:33.148Z,20.00
2019-03-31T19:17:39.903Z,19.83
2019-03-31T19:20:50.592Z,22.27
2019-03-31T19:24:00.962Z,21.33
2019-03-31T19:27:10.542Z,19.13
2019-03-31T19:30:17.191Z,21.03
2019-03-31T19:33:25.015Z,20.70
2019-03-31T19:36:35.547Z,20.93
2019-03-31T19:39:43.561Z,27.05
2019-03-31T19:42:57.344Z,25.23
2019-03-31T19:46:05.684Z,24.67
2019-03-31T19:49:16.446Z,23.70
2019-03-31T19:52:22.734Z,22.20
2019-03-31T19:55:30.753Z,21.67
2019-03-31T19:58:37.843Z,20.13
2019-03-31T20:01:51.290Z,19.03
2019-03-31T20:05:01.309Z,18.40
2019-03-31T20:08:09.502Z,20.00
2019-03-31T20:11:09.285Z,17.70
2019-03-31T20:14:26.962Z,17.33
2019-03-31T20:17:23.205Z,20.37
2019-03-31T20:20:21.541Z,19.60
2019-03-31T20:23:26.448Z,21.03
2019-03-31T20:26:33.392Z,19.20
2019-03-31T20:29:40.610Z,22.30
2019-03-31T20:32:54.387Z,22.33
2019-03-31T20:36:02.850Z,26.33
2019-03-31T20:39:29.080Z,27.82
2019-03-31T20:42:34.107Z,21.23
2019-03-31T20:45:23.018Z,19.80
2019-03-31T20:48:11.272Z,20.30
2019-03-31T20:51:00.231Z,22.43
2019-03-31T20:53:49.388Z,18.02
2019-03-31T20:56:37.841Z,16.50
2019-03-31T20:59:26.643Z,16.63
2019-03-31T21:02:15.700Z,18.73
2019-03-31T21:05:04.344Z,19.17
2019-03-31T21:07:53.254Z,16.63
2019-03-31T21:10:42.066Z,14.90
2019-03-31T21:13:30.437Z,14.50
2019-03-31T21:16:19.345Z,15.80
2019-03-31T21:19:07.942Z,16.60
2019-03-31T21:21:56.457Z,16.00
2019-03-31T21:24:45.093Z,21.60
2019-03-31T21:27:33.515Z,16.60
2019-03-31T21:30:21.810Z,19.03
2019-03-31T21:33:11.013Z,18.90
2019-03-31T21:35:59.874Z,17.97
2019-03-31T21:38:48.449Z,15.47
2019-03-31T21:41:37.214Z,16.13
2019-03-31T21:44:26.255Z,13.80
2019-03-31T21:47:14.419Z,16.73
2019-03-31T21:50:04.210Z,14.53
2019-03-31T21:52:53.414Z,17.67
2019-03-31T21:55:42.289Z,15.47
2019-03-31T21:58:31.070Z,17.53
2019-03-31T22:01:19.464Z,19.87
2019-03-31T22:04:08.405Z,16.27
2019-03-31T22:06:57.524Z,15.23
2019-03-31T22:09:45.679Z,15.97
2019-03-31T22:12:34.423Z,15.40
2019-03-31T22:15:23.142Z,15.47
2019-03-31T22:18:11.908Z,20.40
2019-03-31T22:21:01.210Z,16.33
2019-03-31T22:23:57.799Z,16.40
2019-03-31T22:26:39.837Z,28.20
2019-03-31T22:29:28.842Z,18.37
2019-03-31T22:32:17.473Z,13.90
2019-03-31T22:35:06.430Z,16.67
2019-03-31T22:37:55.107Z,14.90
2019-03-31T22:40:43.257Z,15.77
2019-03-31T22:43:32.353Z,17.53
2019-03-31T22:46:21.531Z,16.20
2019-03-31T22:49:10.347Z,16.53
2019-03-31T22:51:58.504Z,16.40
2019-03-31T22:54:46.941Z,14.40
2019-03-31T22:57:35.432Z,15.67
2019-03-31T23:00:26.764Z,16.17
2019-03-31T23:03:15.065Z,16.50
2019-03-31T23:06:03.817Z,13.10
2019-03-31T23:08:52.498Z,15.90
2019-03-31T23:11:41.739Z,17.33
2019-03-31T23:14:30.955Z,15.40
2019-03-31T23:17:19.552Z,15.17
2019-03-31T23:20:08.667Z,13.70
2019-03-31T23:22:57.269Z,15.13
2019-03-31T23:25:45.633Z,14.40
2019-03-31T23:28:36.271Z,15.20
2019-03-31T23:31:24.913Z,14.10
2019-03-31T23:34:13.973Z,20.43
2019-03-31T23:37:02.149Z,22.83
2019-03-31T23:39:50.287Z,18.10
2019-03-31T23:42:38.538Z,17.07
2019-03-31T23:45:27.100Z,22.70
2019-03-31T23:48:16.119Z,19.97
2019-03-31T23:51:04.439Z,18.53
2019-03-31T23:53:52.636Z,18.10
2019-03-31T23:56:41.894Z,20.45
2019-03-31T23:59:31.094Z,19.13
